Time;durP1;ratioP1;P1;durP2;ratioP2;P2;SDS_P1;SDS_P2;PMS_P1;PMS_P2;Temp;Humidity;BMP_temperature;BMP_pressure;BME280_temperature;BME280_humidity;BME280_pressure;Samples;Min_cycle;Max_cycle;Signal;HPM_P1;HPM_P2
2021/05/25 00:02:02;;;;;;;;;0.00;0.00;;;;;10.88;68.04;100653.25;5058563;28;46229;-82
2021/05/25 00:04:27;;;;;;;;;0.00;0.00;;;;;10.85;68.29;100663.94;5057493;28;48558;-82
2021/05/25 00:06:52;;;;;;;;;0.00;0.00;;;;;10.82;68.57;100658.91;5057884;28;45455;-84
2021/05/25 00:09:18;;;;;;;;;0.00;0.00;;;;;10.81;68.07;100662.47;5057674;28;45497;-82
2021/05/25 00:11:43;;;;;;;;;1.00;0.00;;;;;10.77;68.39;100663.66;5057337;28;46413;-83
2021/05/25 00:17:30;;;;;;;;;0.00;0.00;;;;;10.76;68.41;100679.47;5056482;28;45853;-85
2021/05/25 00:19:56;;;;;;;;;0.00;0.00;;;;;10.78;68.21;100686.28;5056997;28;45733;-85
2021/05/25 00:22:21;;;;;;;;;0.00;0.00;;;;;10.77;68.54;100684.63;5056814;28;46735;-83
2021/05/25 00:24:47;;;;;;;;;0.00;0.00;;;;;10.77;68.18;100700.34;5056879;28;45757;-83
2021/05/25 00:27:12;;;;;;;;;0.00;0.00;;;;;10.72;68.33;100696.38;5055447;28;45880;-85
2021/05/25 00:29:37;;;;;;;;;0.00;0.00;;;;;10.67;68.20;100683.59;5057053;28;45476;-84
2021/05/25 00:32:03;;;;;;;;;0.00;0.00;;;;;10.72;67.84;100710.31;5057033;28;46507;-85
2021/05/25 00:34:28;;;;;;;;;0.00;0.00;;;;;10.63;67.58;100713.56;5056996;28;46793;-83
2021/05/25 00:36:54;;;;;;;;;0.00;0.00;;;;;10.63;68.18;100700.47;5057794;28;45799;-86
2021/05/25 00:39:19;;;;;;;;;1.00;0.00;;;;;10.64;67.31;100736.19;5057489;28;45655;-85
2021/05/25 00:41:45;;;;;;;;;0.00;0.00;;;;;10.65;67.65;100752.75;5056759;28;45684;-83
2021/05/25 00:47:34;;;;;;;;;0.00;0.00;;;;;10.56;67.90;100729.81;5060402;28;45620;-83
2021/05/25 00:50:11;;;;;;;;;0.00;0.00;;;;;10.53;68.21;100750.03;5056537;28;45629;-85
2021/05/25 00:52:48;;;;;;;;;1.00;0.00;;;;;10.53;67.57;100763.13;5058026;28;46885;-84
2021/05/25 00:55:21;;;;;;;;;0.00;0.00;;;;;10.56;68.41;100753.41;5058562;28;46629;-85
2021/05/25 00:57:48;;;;;;;;;0.00;0.00;;;;;10.53;68.83;100762.28;5056990;28;45845;-86
2021/05/25 01:00:16;;;;;;;;;0.00;0.00;;;;;10.52;68.70;100785.06;5061359;28;45662;-88
2021/05/25 01:02:42;;;;;;;;;0.00;0.00;;;;;10.46;68.78;100782.84;5060971;28;45742;-85
2021/05/25 01:05:38;;;;;;;;;0.25;0.00;;;;;10.43;69.24;100758.63;5060318;28;45519;-87
2021/05/25 01:08:05;;;;;;;;;0.00;0.00;;;;;10.41;69.38;100776.25;5078735;28;45876;-86
2021/05/25 01:10:41;;;;;;;;;0.00;0.00;;;;;10.38;69.18;100781.66;5080141;28;45578;-91
2021/05/25 01:13:14;;;;;;;;;1.00;0.00;;;;;10.35;69.25;100768.78;5080031;28;45824;-86
2021/05/25 01:15:41;;;;;;;;;0.00;0.00;;;;;10.26;69.59;100766.78;5082538;28;46555;-86
2021/05/25 01:18:07;;;;;;;;;0.50;0.00;;;;;10.27;69.47;100784.16;5084371;28;45899;-86
2021/05/25 01:20:37;;;;;;;;;0.00;0.00;;;;;10.26;69.33;100761.53;5083011;28;45598;-86
2021/05/25 01:23:04;;;;;;;;;0.00;0.00;;;;;10.30;69.61;100789.22;5083024;28;45609;-93
2021/05/25 01:25:31;;;;;;;;;0.75;0.00;;;;;10.32;69.22;100795.16;5081837;28;45474;-90
2021/05/25 01:27:57;;;;;;;;;0.25;0.00;;;;;10.32;69.67;100816.97;5085581;28;45559;-90
2021/05/25 01:30:25;;;;;;;;;1.00;0.00;;;;;10.32;69.91;100840.53;5081803;28;45708;-85
2021/05/25 01:32:51;;;;;;;;;0.00;0.00;;;;;10.28;72.07;100848.69;5076530;28;48920;-85
2021/05/25 01:35:16;;;;;;;;;0.00;0.00;;;;;10.21;74.70;100855.25;5076487;28;46073;-86
2021/05/25 01:37:42;;;;;;;;;0.00;0.00;;;;;10.10;74.29;100838.44;5076672;28;45630;-85
2021/05/25 01:40:08;;;;;;;;;0.00;0.00;;;;;9.95;77.05;100838.59;5056783;28;45519;-85
2021/05/25 01:42:35;;;;;;;;;0.00;0.00;;;;;9.82;76.51;100830.72;5054912;28;45974;-85
2021/05/25 01:45:02;;;;;;;;;0.00;0.00;;;;;9.74;76.66;100847.84;5055030;28;46053;-84
2021/05/25 01:47:28;;;;;;;;;0.00;0.00;;;;;9.60;75.83;100836.50;5054827;27;45774;-85
2021/05/25 01:50:10;;;;;;;;;0.00;0.00;;;;;9.57;76.64;100838.44;5055189;28;45730;-84
2021/05/25 01:52:36;;;;;;;;;0.00;0.00;;;;;9.52;78.27;100859.66;5053459;28;48670;-84
2021/05/25 01:55:01;;;;;;;;;0.00;0.00;;;;;9.43;76.75;100846.31;5054938;28;45646;-84
2021/05/25 01:57:26;;;;;;;;;0.00;0.00;;;;;9.40;77.00;100844.72;5054770;28;45755;-84
2021/05/25 02:03:15;;;;;;;;;0.00;0.00;;;;;9.35;77.37;100838.94;5042963;28;46075;-85
2021/05/25 02:05:41;;;;;;;;;0.00;0.00;;;;;9.31;78.51;100827.00;5054928;28;45914;-85
2021/05/25 02:08:08;;;;;;;;;0.00;0.00;;;;;9.28;77.34;100846.31;5057326;28;45592;-84
2021/05/25 02:10:39;;;;;;;;;0.00;0.00;;;;;9.22;77.48;100827.59;5055776;28;45842;-84
2021/05/25 02:13:08;;;;;;;;;0.00;0.00;;;;;9.29;77.31;100847.16;5054599;28;47645;-86
2021/05/25 02:15:35;;;;;;;;;0.25;0.00;;;;;9.25;77.04;100849.13;5055273;28;47161;-88
2021/05/25 02:18:06;;;;;;;;;0.00;0.00;;;;;9.22;77.02;100851.13;5055165;28;46138;-84
2021/05/25 02:20:32;;;;;;;;;0.00;0.00;;;;;9.26;77.41;100861.28;5056636;28;45542;-84
2021/05/25 02:22:57;;;;;;;;;0.00;0.00;;;;;9.28;77.34;100861.19;5058815;28;46347;-84
2021/05/25 02:25:23;;;;;;;;;0.00;0.00;;;;;9.24;77.79;100854.47;5057335;28;45733;-85
2021/05/25 02:27:48;;;;;;;;;0.00;0.00;;;;;9.28;77.13;100861.19;5053589;28;45958;-84
2021/05/25 02:30:14;;;;;;;;;0.00;0.00;;;;;9.30;77.16;100863.69;5054766;28;45877;-85
2021/05/25 02:32:39;;;;;;;;;0.00;0.00;;;;;9.31;77.88;100868.00;5054349;28;48753;-85
2021/05/25 02:35:05;;;;;;;;;0.00;0.00;;;;;9.31;77.41;100862.78;5055060;28;46273;-85
2021/05/25 02:37:32;;;;;;;;;0.00;0.00;;;;;9.34;77.47;100871.25;5054752;28;46131;-85
2021/05/25 02:39:58;;;;;;;;;0.00;0.00;;;;;9.30;77.00;100848.00;5054991;28;45448;-86
2021/05/25 02:42:24;;;;;;;;;0.00;0.00;;;;;9.43;76.96;100864.63;5054310;28;46761;-84
2021/05/25 02:48:11;;;;;;;;;0.00;0.00;;;;;9.53;76.81;100863.97;5054713;28;45779;-86
2021/05/25 02:50:37;;;;;;;;;0.00;0.00;;;;;9.60;77.03;100872.28;5055030;28;45659;-83
2021/05/25 02:53:03;;;;;;;;;1.00;0.00;;;;;9.61;76.76;100868.69;5055473;28;45641;-85
2021/05/25 02:55:34;;;;;;;;;0.00;0.00;;;;;9.65;76.95;100878.91;5056780;28;46486;-86
2021/05/25 02:58:01;;;;;;;;;1.50;1.00;;;;;9.62;76.62;100859.91;5058328;28;45791;-85
2021/05/25 03:00:47;;;;;;;;;0.00;0.00;;;;;9.73;76.89;100880.16;5057175;28;45571;-85
2021/05/25 03:03:13;;;;;;;;;0.00;0.00;;;;;9.73;76.48;100878.38;5054583;28;45713;-86
2021/05/25 03:05:40;;;;;;;;;0.00;0.00;;;;;9.73;76.92;100874.94;5056760;28;46149;-85
2021/05/25 03:08:08;;;;;;;;;1.00;0.75;;;;;9.76;76.93;100872.13;5056213;28;45657;-85
2021/05/25 03:10:36;;;;;;;;;0.50;0.00;;;;;9.82;76.65;100885.69;5055361;28;45640;-87
2021/05/25 03:13:03;;;;;;;;;1.00;0.00;;;;;9.85;76.91;100895.09;5058103;28;45687;-87
2021/05/25 03:15:35;;;;;;;;;2.00;1.00;;;;;9.86;77.38;100894.16;5060253;28;46057;-85
2021/05/25 03:18:01;;;;;;;;;3.50;1.50;;;;;9.91;76.82;100899.94;5057816;28;45668;-86
2021/05/25 03:20:27;;;;;;;;;1.00;1.00;;;;;9.93;76.76;100901.50;5055655;28;45759;-85
2021/05/25 03:22:53;;;;;;;;;2.00;1.00;;;;;9.93;77.42;100904.13;5054022;28;45525;-85
2021/05/25 03:25:19;;;;;;;;;0.50;0.00;;;;;9.97;77.33;100907.41;5052672;28;48349;-86
2021/05/25 03:27:46;;;;;;;;;1.00;0.00;;;;;9.98;77.50;100909.09;5057149;28;45617;-84
2021/05/25 03:33:34;;;;;;;;;0.00;0.00;;;;;9.99;77.76;100905.50;5060374;28;46052;-86
2021/05/25 03:36:00;;;;;;;;;0.50;0.00;;;;;10.03;77.58;100909.63;5059858;28;46094;-89
2021/05/25 03:38:25;;;;;;;;;2.00;1.75;;;;;9.99;77.78;100906.34;5057302;28;45874;-88
2021/05/25 03:40:51;;;;;;;;;1.00;0.25;;;;;10.02;78.32;100916.66;5059338;28;45519;-91
2021/05/25 03:43:16;;;;;;;;;1.75;1.00;;;;;9.97;78.22;100908.25;5056770;28;46374;-90
2021/05/25 03:45:42;;;;;;;;;1.75;1.00;;;;;9.95;78.16;100917.13;5057234;28;46044;-91
2021/05/25 03:48:07;;;;;;;;;0.50;0.00;;;;;9.94;78.57;100911.03;5058590;28;45761;-84
2021/05/25 03:50:33;;;;;;;;;1.75;1.00;;;;;9.94;78.38;100926.75;5053271;28;45595;-85
2021/05/25 03:52:58;;;;;;;;;1.00;1.00;;;;;9.95;78.12;100917.13;5053798;28;45692;-86
2021/05/25 04:04:01;;;;;;;;;2.00;1.00;;;;;9.97;78.23;100951.91;5048743;28;45652;-85
2021/05/25 04:06:26;;;;;;;;;2.00;1.00;;;;;9.96;78.30;100955.44;5070514;28;47223;-83
2021/05/25 04:08:51;;;;;;;;;0.50;0.50;;;;;9.97;78.77;100962.38;5069340;28;45940;-85
2021/05/25 04:11:17;;;;;;;;;2.00;1.00;;;;;9.99;78.30;100971.78;5054060;28;45640;-88
2021/05/25 04:13:43;;;;;;;;;1.00;0.00;;;;;10.00;78.29;100962.16;5052519;28;48100;-87
2021/05/25 04:16:12;;;;;;;;;1.75;0.00;;;;;9.98;78.21;100970.13;5052839;28;46197;-86
2021/05/25 04:18:37;;;;;;;;;2.00;0.00;;;;;9.99;78.52;100965.72;5054634;28;45714;-87
2021/05/25 04:21:03;;;;;;;;;1.00;1.00;;;;;9.96;78.29;100958.06;5054447;28;45697;-86
2021/05/25 04:23:29;;;;;;;;;1.00;0.75;;;;;10.00;78.66;100983.94;5054005;28;46356;-86
2021/05/25 04:25:54;;;;;;;;;1.00;0.25;;;;;9.99;78.31;100994.50;5056361;28;47075;-85
2021/05/25 04:28:19;;;;;;;;;0.75;0.75;;;;;10.00;78.61;100981.34;5058829;28;45911;-87
2021/05/25 04:34:07;;;;;;;;;2.00;2.00;;;;;9.99;77.98;101010.22;5058603;28;45498;-87
2021/05/25 04:36:32;;;;;;;;;2.00;1.00;;;;;9.97;78.04;100989.38;5058485;28;46332;-86
2021/05/25 04:38:58;;;;;;;;;0.25;0.25;;;;;10.00;78.09;101004.88;5057330;28;46205;-85
2021/05/25 04:41:23;;;;;;;;;2.00;1.00;;;;;10.02;77.54;101004.81;5057618;28;45542;-87
2021/05/25 04:43:48;;;;;;;;;2.25;1.00;;;;;9.99;77.72;100995.34;5072883;28;47738;-89
2021/05/25 04:46:14;;;;;;;;;2.00;1.00;;;;;10.02;78.06;101010.88;5072150;28;47182;-86
2021/05/25 04:48:39;;;;;;;;;1.50;1.50;;;;;9.95;77.80;100993.88;5057412;28;45678;-87
2021/05/25 04:51:05;;;;;;;;;1.75;1.00;;;;;10.05;77.73;101022.91;5058960;28;45752;-88
2021/05/25 04:53:32;;;;;;;;;0.00;0.00;;;;;10.02;77.73;101021.34;5061566;28;45735;-85
2021/05/25 04:55:58;;;;;;;;;1.00;0.00;;;;;9.97;77.64;101006.88;5059910;28;46009;-86
2021/05/25 04:58:23;;;;;;;;;1.00;1.00;;;;;10.02;77.39;101023.13;5056819;28;45445;-86
2021/05/25 05:04:10;;;;;;;;;2.00;1.00;;;;;10.04;77.14;101029.13;5054007;28;45657;-89
2021/05/25 05:06:36;;;;;;;;;1.00;0.50;;;;;10.01;77.33;101029.28;5059351;28;46201;-86
2021/05/25 05:09:01;;;;;;;;;2.00;1.00;;;;;10.08;77.05;101030.59;5074659;28;45659;-87
2021/05/25 05:11:27;;;;;;;;;2.00;2.00;;;;;10.07;77.50;101042.00;5058295;28;45754;-89
2021/05/25 05:13:52;;;;;;;;;4.75;1.00;;;;;10.08;77.08;101041.91;5056987;28;45475;-88
2021/05/25 05:16:18;;;;;;;;;2.25;1.25;;;;;10.08;77.46;101041.91;5072454;28;48190;-85
2021/05/25 05:18:43;;;;;;;;;2.00;1.00;;;;;10.08;77.26;101056.78;5057724;28;45526;-86
2021/05/25 05:21:08;;;;;;;;;2.00;1.00;;;;;10.08;76.94;101033.22;5057472;28;45542;-85
2021/05/25 05:23:34;;;;;;;;;3.00;1.00;;;;;10.15;77.11;101059.88;5056932;28;45564;-85
2021/05/25 05:26:00;;;;;;;;;1.50;0.00;;;;;10.19;76.82;101064.00;5056627;28;46338;-88
2021/05/25 05:28:25;;;;;;;;;1.75;1.00;;;;;10.14;77.02;101055.56;5057821;28;45514;-86
2021/05/25 05:34:13;;;;;;;;;0.00;0.00;;;;;10.24;76.51;101106.44;5058537;28;45587;-87
2021/05/25 05:36:38;;;;;;;;;1.00;0.75;;;;;10.24;76.43;101085.50;5059014;28;45540;-88
2021/05/25 05:39:04;;;;;;;;;2.75;1.00;;;;;10.24;76.52;101072.41;5057801;28;46097;-86
2021/05/25 05:41:30;;;;;;;;;3.25;1.75;;;;;10.34;76.56;101076.97;5058724;28;45530;-83
2021/05/25 05:43:56;;;;;;;;;2.75;1.75;;;;;10.37;76.79;101083.78;5059439;28;48233;-85
2021/05/25 05:49:43;;;;;;;;;1.00;1.00;;;;;10.43;76.31;101088.66;5056947;28;45838;-85
2021/05/25 05:52:09;;;;;;;;;3.50;1.00;;;;;10.42;76.07;101098.28;5055754;28;45727;-87
2021/05/25 05:54:34;;;;;;;;;1.50;1.00;;;;;10.55;75.76;101087.03;5056093;28;45659;-86
2021/05/25 05:57:00;;;;;;;;;1.00;1.00;;;;;10.52;75.73;101099.41;5056868;28;45794;-87
2021/05/25 05:59:25;;;;;;;;;1.00;1.00;;;;;10.55;76.04;101087.88;5072763;28;45487;-88
2021/05/25 06:01:51;;;;;;;;;2.75;2.25;;;;;10.59;75.86;101091.97;5056428;28;45674;-90
2021/05/25 06:04:16;;;;;;;;;0.50;0.00;;;;;10.64;75.71;101105.63;5073963;28;47074;-89
2021/05/25 06:06:41;;;;;;;;;2.50;1.50;;;;;10.67;75.86;101105.44;5055805;28;46552;-87
2021/05/25 06:09:07;;;;;;;;;1.50;1.00;;;;;10.73;75.54;101102.44;5056074;28;45839;-86
2021/05/25 06:11:32;;;;;;;;;2.00;0.50;;;;;10.78;75.66;101112.63;5056096;28;45694;-85
2021/05/25 06:13:59;;;;;;;;;2.00;1.00;;;;;10.78;75.09;101103.00;5053984;28;47856;-86
2021/05/25 06:19:46;;;;;;;;;1.00;1.00;;;;;10.86;75.32;101118.22;5054318;28;45773;-86
2021/05/25 06:22:11;;;;;;;;;1.25;1.25;;;;;10.90;75.18;101131.00;5054732;28;45460;-87
2021/05/25 06:24:37;;;;;;;;;1.00;1.00;;;;;10.83;75.15;101103.53;5052834;28;46987;-83
2021/05/25 06:27:03;;;;;;;;;1.50;1.00;;;;;10.94;75.10;101115.94;5053015;28;48099;-81
2021/05/25 06:29:29;;;;;;;;;1.50;1.00;;;;;11.02;74.73;101136.41;5055004;28;45617;-82
2021/05/25 06:31:59;;;;;;;;;1.75;1.00;;;;;11.02;74.59;101126.75;5071872;28;45639;-79
2021/05/25 06:34:25;;;;;;;;;1.00;0.00;;;;;11.06;74.02;101157.13;5057022;28;45689;-84
2021/05/25 06:36:51;;;;;;;;;0.25;0.00;;;;;11.01;74.31;101121.66;5055098;28;46622;-82
2021/05/25 06:39:16;;;;;;;;;3.25;2.00;;;;;11.07;74.17;101136.94;5055409;28;45601;-81
2021/05/25 06:41:42;;;;;;;;;2.00;1.25;;;;;11.05;74.24;101133.59;5054204;28;45733;-82
2021/05/25 06:44:07;;;;;;;;;1.00;1.00;;;;;11.12;74.17;101137.53;5054030;28;46491;-82
2021/05/25 06:49:54;;;;;;;;;1.50;1.00;;;;;11.22;74.09;101149.94;5054418;28;45840;-82
2021/05/25 06:52:20;;;;;;;;;2.25;1.00;;;;;11.29;73.96;101160.84;5054169;28;45467;-82
2021/05/25 06:54:46;;;;;;;;;1.00;1.00;;;;;11.33;73.97;101142.22;5053865;28;46607;-81
2021/05/25 06:57:12;;;;;;;;;2.25;1.25;;;;;11.32;73.98;101148.41;5052106;28;46983;-82
2021/05/25 06:59:37;;;;;;;;;2.25;1.00;;;;;11.42;73.11;101156.50;5053959;28;45847;-82
2021/05/25 07:02:04;;;;;;;;;1.00;1.00;;;;;11.39;73.16;101142.75;5054154;28;45656;-80
2021/05/25 07:04:29;;;;;;;;;1.00;1.00;;;;;11.51;72.53;101176.03;5053555;28;45662;-82
2021/05/25 07:06:55;;;;;;;;;2.00;1.00;;;;;11.48;72.60;101142.97;5054446;28;45664;-81
2021/05/25 07:09:20;;;;;;;;;1.00;0.50;;;;;11.51;72.61;101149.78;5058691;28;45594;-81
2021/05/25 07:11:46;;;;;;;;;1.00;1.00;;;;;11.59;71.45;101164.09;5055228;28;45757;-82
2021/05/25 07:14:11;;;;;;;;;1.75;0.75;;;;;11.59;71.45;101163.25;5053299;28;46327;-82
2021/05/25 07:20:02;;;;;;;;;1.75;1.00;;;;;11.69;71.99;101172.19;5053192;28;45726;-83
2021/05/25 07:22:28;;;;;;;;;1.00;0.25;;;;;11.75;72.29;101167.41;5053589;28;45528;-82
2021/05/25 07:24:54;;;;;;;;;3.00;1.50;;;;;11.83;72.18;101172.13;5053481;28;46249;-81
2021/05/25 07:27:20;;;;;;;;;0.25;0.25;;;;;11.86;71.76;101165.84;5053081;28;46120;-82
2021/05/25 07:29:46;;;;;;;;;1.25;1.25;;;;;11.98;72.05;101181.63;5053154;28;45474;-82
2021/05/25 07:32:11;;;;;;;;;1.00;1.00;;;;;11.99;71.54;101156.19;5053244;28;45577;-83
2021/05/25 07:34:37;;;;;;;;;1.00;0.00;;;;;12.10;70.41;101170.25;5053378;28;46213;-82
2021/05/25 07:37:02;;;;;;;;;2.25;0.75;;;;;12.09;70.87;101179.09;5053143;28;45543;-81
2021/05/25 07:39:27;;;;;;;;;1.00;1.00;;;;;12.21;70.45;101190.53;5053381;28;45767;-80
2021/05/25 07:41:55;;;;;;;;;1.50;0.50;;;;;12.24;69.03;101186.88;5053930;28;45604;-79
2021/05/25 07:44:21;;;;;;;;;1.00;1.00;;;;;12.31;69.40;101194.22;5054745;28;46556;-80
2021/05/25 07:50:14;;;;;;;;;1.25;1.00;;;;;12.50;70.23;101172.78;5052810;28;45535;-80
2021/05/25 07:52:51;;;;;;;;;0.00;0.00;;;;;12.60;70.07;101173.81;5051440;28;46002;-79
2021/05/25 07:55:21;;;;;;;;;2.00;1.00;;;;;12.67;68.17;101188.22;5051211;28;47555;-79
2021/05/25 07:57:47;;;;;;;;;0.25;0.00;;;;;12.70;68.53;101177.47;5052726;28;46041;-79
2021/05/25 08:00:14;;;;;;;;;1.00;0.00;;;;;12.77;68.63;101183.97;5056118;28;45550;-80
2021/05/25 08:02:41;;;;;;;;;0.00;0.00;;;;;12.80;68.98;101193.41;5056431;28;45506;-81
2021/05/25 08:05:08;;;;;;;;;1.00;1.00;;;;;12.86;67.91;101198.25;5056117;28;45589;-78
2021/05/25 08:07:34;;;;;;;;;0.00;0.00;;;;;12.92;67.16;101195.19;5056206;27;46657;-80
2021/05/25 08:09:59;;;;;;;;;1.00;1.00;;;;;12.99;68.21;101204.31;5056000;28;45742;-80
2021/05/25 08:12:25;;;;;;;;;1.00;1.00;;;;;13.02;67.84;101183.06;5056266;28;45734;-80
2021/05/25 08:14:52;;;;;;;;;0.75;0.75;;;;;13.11;67.40;101190.28;5056007;28;46569;-80
2021/05/25 08:20:40;;;;;;;;;1.00;1.00;;;;;13.21;67.02;101188.72;5058944;28;45645;-80
2021/05/25 08:23:10;;;;;;;;;1.00;1.00;;;;;13.27;67.41;101193.53;5058699;28;45657;-80
2021/05/25 08:25:36;;;;;;;;;2.00;1.00;;;;;13.33;67.66;101192.25;5057259;28;45559;-79
2021/05/25 08:28:04;;;;;;;;;1.00;0.00;;;;;13.43;67.64;101201.97;5055883;28;46121;-79
2021/05/25 08:30:32;;;;;;;;;1.50;1.00;;;;;13.53;67.71;101193.41;5055688;28;45612;-78
2021/05/25 08:32:57;;;;;;;;;1.75;1.00;;;;;13.65;67.89;101206.50;5055945;28;45534;-78
2021/05/25 08:35:24;;;;;;;;;1.00;1.00;;;;;13.71;67.69;101206.03;5055484;28;46622;-79
2021/05/25 08:37:56;;;;;;;;;1.00;0.00;;;;;13.78;65.35;101209.88;5055641;28;45919;-80
2021/05/25 08:40:23;;;;;;;;;2.75;0.75;;;;;13.86;64.52;101217.22;5055505;28;45743;-80
2021/05/25 08:42:48;;;;;;;;;1.75;0.75;;;;;13.92;66.15;101200.97;5055752;28;45624;-80
2021/05/25 08:45:14;;;;;;;;;1.00;0.00;;;;;13.97;66.57;101204.09;5055822;28;45556;-83
2021/05/25 08:47:41;;;;;;;;;1.00;0.00;;;;;14.10;66.08;101210.09;5056198;28;45874;-82
2021/05/25 08:50:10;;;;;;;;;1.00;0.00;;;;;14.18;66.14;101206.88;5054186;28;45673;-83
2021/05/25 08:52:36;;;;;;;;;2.50;2.00;;;;;14.23;66.07;101202.09;5054574;28;45712;-83
2021/05/25 08:55:03;;;;;;;;;0.00;0.00;;;;;14.27;65.62;101196.47;5056083;28;46937;-82
2021/05/25 08:57:29;;;;;;;;;0.25;0.00;;;;;14.36;65.68;101199.34;5056231;28;46102;-81
2021/05/25 08:59:54;;;;;;;;;1.00;1.00;;;;;14.39;65.89;101197.34;5056719;28;45456;-81
2021/05/25 09:05:52;;;;;;;;;1.75;1.00;;;;;14.55;63.88;101220.72;5045764;28;45830;-81
2021/05/25 09:08:17;;;;;;;;;1.00;1.00;;;;;14.58;65.17;101194.94;5055907;28;46054;-83
2021/05/25 09:10:47;;;;;;;;;0.00;0.00;;;;;14.57;64.30;101190.66;5054803;28;45631;-82
2021/05/25 09:13:24;;;;;;;;;1.00;1.00;;;;;14.56;62.95;101199.53;5055741;28;45602;-83
2021/05/25 09:15:55;;;;;;;;;1.75;0.25;;;;;14.56;63.03;101203.94;5055297;28;45684;-82
2021/05/25 09:18:28;;;;;;;;;0.75;0.75;;;;;14.54;62.95;101206.69;5055270;28;46516;-82
2021/05/25 09:20:56;;;;;;;;;1.00;1.00;;;;;14.56;63.45;101198.69;5055147;28;45781;-81
2021/05/25 09:23:43;;;;;;;;;1.00;0.00;;;;;14.57;63.87;101203.84;5055324;28;45523;-81
2021/05/25 09:26:16;;;;;;;;;1.25;0.50;;;;;14.57;61.50;101209.13;5055116;28;46304;-85
2021/05/25 09:29:03;;;;;;;;;1.50;0.00;;;;;14.55;62.33;101197.00;5055113;28;45869;-81
2021/05/25 09:31:43;;;;;;;;;3.25;1.00;;;;;14.61;62.60;101193.88;5055049;28;45661;-83
2021/05/25 09:34:17;;;;;;;;;1.00;0.25;;;;;14.65;62.80;101197.94;5055554;28;45700;-82
2021/05/25 09:37:03;;;;;;;;;2.00;1.00;;;;;14.71;62.49;101192.19;5054198;28;46707;-82
2021/05/25 09:39:31;;;;;;;;;1.00;1.00;;;;;14.76;62.49;101187.38;5056406;28;46395;-80
2021/05/25 09:42:01;;;;;;;;;0.00;0.00;;;;;14.82;62.62;101186.06;5057742;28;45666;-83
2021/05/25 09:44:27;;;;;;;;;0.50;0.50;;;;;14.87;61.89;101191.81;5061332;28;45652;-82
2021/05/25 09:46:53;;;;;;;;;0.25;0.25;;;;;14.89;62.25;101182.81;5057602;28;47538;-83
2021/05/25 09:49:20;;;;;;;;;1.00;0.00;;;;;14.90;62.12;101183.66;5055891;28;45747;-81
2021/05/25 09:51:45;;;;;;;;;1.75;1.00;;;;;14.97;59.99;101198.03;5055045;28;45612;-81
2021/05/25 09:54:18;;;;;;;;;1.00;1.00;;;;;15.00;60.87;101180.16;5055074;28;45695;-81
2021/05/25 09:56:55;;;;;;;;;3.00;1.00;;;;;15.05;60.93;101187.72;5054533;28;45580;-83
2021/05/25 09:59:29;;;;;;;;;1.00;1.00;;;;;15.13;60.60;101191.41;5054650;28;46044;-83
2021/05/25 10:01:54;;;;;;;;;2.00;2.00;;;;;15.18;59.43;101204.22;5052923;28;45606;-83
2021/05/25 10:04:20;;;;;;;;;0.00;0.00;;;;;15.19;60.31;101186.59;5053375;28;45613;-83
2021/05/25 10:06:48;;;;;;;;;1.25;1.00;;;;;15.26;59.93;101191.25;5053742;28;45690;-82
2021/05/25 10:09:14;;;;;;;;;1.25;1.00;;;;;15.26;59.76;101196.53;5054568;27;45994;-82
2021/05/25 10:11:44;;;;;;;;;0.50;0.00;;;;;15.22;60.25;101224.16;5054432;28;45630;-82
2021/05/25 10:14:11;;;;;;;;;2.00;1.00;;;;;15.20;59.22;101219.94;5054935;28;45498;-84
2021/05/25 10:16:38;;;;;;;;;0.00;0.00;;;;;15.12;58.49;101236.38;5054834;28;46668;-82
2021/05/25 10:21:54;;;;;;;;;0.00;0.00;;;;;14.86;60.15;101251.66;5013566;28;45604;-82
2021/05/25 10:24:19;;;;;;;;;3.00;1.00;;;;;14.72;61.47;101258.97;5015621;28;45578;-83
2021/05/25 10:26:45;;;;;;;;;1.25;1.00;;;;;14.57;62.51;101246.03;5016155;28;45590;-82
2021/05/25 10:29:11;;;;;;;;;2.25;1.00;;;;;14.38;63.83;101269.47;5014379;28;45658;-82
2021/05/25 10:31:39;;;;;;;;;1.00;1.00;;;;;14.29;64.08;101272.78;5012260;28;45765;-82
2021/05/25 10:34:30;;;;;;;;;1.00;1.00;;;;;14.12;66.66;101267.94;5012152;28;46040;-82
2021/05/25 10:37:02;;;;;;;;;1.25;1.25;;;;;13.99;66.71;101277.72;5012645;28;47625;-83
2021/05/25 10:39:27;;;;;;;;;3.25;1.00;;;;;13.84;67.33;101270.00;5012267;28;45698;-81
2021/05/25 10:42:19;;;;;;;;;2.50;1.00;;;;;13.69;68.55;101275.56;5012778;28;45767;-82
2021/05/25 10:45:04;;;;;;;;;2.50;1.25;;;;;13.52;69.02;101276.78;5012930;28;46008;-81
2021/05/25 10:47:42;;;;;;;;;1.25;1.00;;;;;13.41;69.93;101279.38;5012448;28;47707;-80
2021/05/25 10:50:17;;;;;;;;;1.00;1.00;;;;;13.34;70.50;101271.06;5012791;28;46690;-84
2021/05/25 10:53:08;;;;;;;;;0.75;0.75;;;;;13.26;70.18;101268.16;5013599;28;45509;-82
2021/05/25 10:55:40;;;;;;;;;1.00;0.50;;;;;13.19;69.63;101250.28;4936910;28;45721;-81
2021/05/25 10:58:18;;;;;;;;;1.00;1.00;;;;;13.25;69.30;101240.16;4948601;28;45738;-82
2021/05/25 11:03:29;;;;;;;;;2.00;1.00;;;;;13.33;69.55;101239.63;4998703;28;45677;-83
2021/05/25 11:05:56;;;;;;;;;2.00;1.00;;;;;13.37;70.51;101247.16;4994490;28;45899;-82
2021/05/25 11:08:33;;;;;;;;;0.25;0.25;;;;;13.33;70.07;101229.09;4992705;28;46195;-84
2021/05/25 11:11:06;;;;;;;;;2.00;1.00;;;;;13.45;69.05;101239.53;4991539;28;46149;-82
2021/05/25 11:13:38;;;;;;;;;0.50;0.50;;;;;13.51;70.08;101240.03;4991723;28;45716;-82
2021/05/25 11:19:34;;;;;;;;;1.00;1.00;;;;;13.64;68.97;101235.56;4992304;28;46089;-84
2021/05/25 11:22:07;;;;;;;;;1.00;1.00;;;;;13.67;69.03;101230.91;4976490;28;47673;-84
2021/05/25 11:25:03;;;;;;;;;1.75;1.00;;;;;13.79;68.44;101231.78;4993675;28;45938;-83
2021/05/25 11:27:43;;;;;;;;;0.00;0.00;;;;;13.93;68.38;101230.78;4975746;28;45554;-85
2021/05/25 11:30:25;;;;;;;;;1.25;1.25;;;;;14.07;67.91;101241.94;4975117;28;48473;-85
2021/05/25 11:36:12;;;;;;;;;1.50;1.00;;;;;14.28;67.26;101221.03;5057058;28;45665;-85
2021/05/25 11:38:38;;;;;;;;;3.50;1.50;;;;;14.45;66.70;101214.50;5057851;28;45537;-84
2021/05/25 11:41:15;;;;;;;;;1.50;1.00;;;;;14.53;65.28;101214.72;5060239;28;45715;-85
2021/05/25 11:43:42;;;;;;;;;1.00;0.00;;;;;14.63;65.27;101205.97;5059653;28;46010;-85
2021/05/25 11:46:07;;;;;;;;;1.00;1.00;;;;;14.68;63.88;101213.53;5059536;28;45694;-85
2021/05/25 11:48:34;;;;;;;;;1.50;1.00;;;;;14.76;62.94;101247.22;5062706;28;45544;-85
2021/05/25 11:51:09;;;;;;;;;1.00;1.00;;;;;14.78;61.08;101225.03;5061577;28;46783;-85
2021/05/25 11:53:34;;;;;;;;;0.25;0.25;;;;;14.84;60.41;101216.66;5059138;28;46945;-84
2021/05/25 11:56:00;;;;;;;;;1.00;1.00;;;;;14.91;61.32;101220.47;5056478;28;45700;-81
2021/05/25 11:58:25;;;;;;;;;0.25;0.25;;;;;15.00;61.14;101219.75;5056547;28;45582;-83
2021/05/25 12:00:51;;;;;;;;;2.00;1.25;;;;;15.09;60.63;101226.94;5071932;28;48324;-83
2021/05/25 12:06:57;;;;;;;;;2.00;1.00;;;;;15.28;61.10;101213.06;5047148;28;45807;-82
2021/05/25 12:09:29;;;;;;;;;2.75;1.00;;;;;15.35;60.00;101208.13;5056898;28;45865;-82
2021/05/25 12:12:08;;;;;;;;;2.50;1.00;;;;;15.42;59.92;101196.13;5056175;28;46201;-82
2021/05/25 12:14:34;;;;;;;;;1.75;1.00;;;;;15.47;57.90;101209.78;5056542;28;46028;-81
2021/05/25 12:17:03;;;;;;;;;2.00;1.00;;;;;15.49;57.84;101192.81;5056390;28;45596;-84
2021/05/25 12:19:29;;;;;;;;;1.25;1.00;;;;;15.52;58.40;101189.97;5054876;28;45816;-83
2021/05/25 12:22:02;;;;;;;;;2.00;1.00;;;;;15.64;58.48;101206.63;5056160;28;45553;-83
2021/05/25 12:24:31;;;;;;;;;1.50;1.00;;;;;15.72;56.90;101195.41;5054872;28;46271;-83
2021/05/25 12:26:58;;;;;;;;;1.25;0.00;;;;;15.75;54.92;101201.28;5056593;28;45789;-82
2021/05/25 12:29:25;;;;;;;;;3.00;1.00;;;;;15.81;56.19;101198.16;5056873;28;45618;-82
2021/05/25 12:31:52;;;;;;;;;1.25;1.00;;;;;15.86;54.51;101217.09;5057206;28;46551;-81
2021/05/25 12:34:20;;;;;;;;;1.00;0.00;;;;;15.96;55.29;101193.38;5063838;28;46293;-82
2021/05/25 12:36:52;;;;;;;;;1.00;1.00;;;;;15.95;54.61;101195.16;5061613;28;45751;-82
2021/05/25 12:39:31;;;;;;;;;0.25;0.00;;;;;16.03;54.59;101188.41;5057860;28;45656;-82
2021/05/25 12:41:57;;;;;;;;;1.00;1.00;;;;;16.07;55.20;101184.53;5056856;28;46522;-82
2021/05/25 12:44:31;;;;;;;;;1.50;1.00;;;;;16.05;54.49;101187.28;5055737;28;45664;-81
2021/05/25 12:47:05;;;;;;;;;2.75;1.50;;;;;16.08;54.95;101191.50;5056303;28;45677;-85